createdAt,value
2019-04-29T00:00:01.680Z,98733.26
2019-04-29T00:03:06.511Z,98736.43
2019-04-29T00:06:11.005Z,98735.84
2019-04-29T00:09:17.713Z,98738.75
2019-04-29T00:12:22.284Z,98737.15
2019-04-29T00:15:28.356Z,98735.09
2019-04-29T00:18:43.235Z,98738.27
2019-04-29T00:21:48.328Z,98737.77
2019-04-29T00:24:52.768Z,98737.02
2019-04-29T00:27:57.193Z,98738.81
2019-04-29T00:31:01.629Z,98743.43
2019-04-29T00:34:06.072Z,98737.59
2019-04-29T00:37:12.132Z,98736.16
2019-04-29T00:40:31.064Z,98737.08
2019-04-29T00:43:40.166Z,98738.41
2019-04-29T00:46:45.098Z,98733.94
2019-04-29T00:49:49.836Z,98744.73
2019-04-29T00:52:54.260Z,98745.41
2019-04-29T00:56:00.335Z,98749.88
2019-04-29T00:59:04.838Z,98747.48
2019-04-29T01:02:09.634Z,98742.10
2019-04-29T01:05:14.514Z,98743.56
2019-04-29T01:08:18.991Z,98747.15
2019-04-29T01:11:23.665Z,98749.05
2019-04-29T01:14:28.101Z,98746.20
2019-04-29T01:17:32.818Z,98745.97
2019-04-29T01:20:37.250Z,98745.92
2019-04-29T01:23:41.972Z,98749.56
2019-04-29T01:26:46.503Z,98744.06
2019-04-29T01:29:51.232Z,98751.06
2019-04-29T01:32:55.657Z,98753.66
2019-04-29T01:36:15.120Z,98750.13
2019-04-29T01:39:19.889Z,98754.55
2019-04-29T01:42:28.910Z,98755.80
2019-04-29T01:45:33.614Z,98761.80
2019-04-29T01:48:38.045Z,98761.53
2019-04-29T01:51:42.476Z,98766.06
2019-04-29T01:54:46.910Z,98759.06
2019-04-29T01:57:51.332Z,98760.78
2019-04-29T02:00:55.765Z,98754.95
2019-04-29T02:04:00.191Z,98761.45
2019-04-29T02:07:04.635Z,98761.38
2019-04-29T02:10:26.834Z,98758.75
2019-04-29T02:13:31.557Z,98757.73
2019-04-29T02:16:35.994Z,98759.06
2019-04-29T02:19:40.414Z,98753.16
2019-04-29T02:22:46.493Z,98761.05
2019-04-29T02:25:51.599Z,98761.22
2019-04-29T02:28:56.359Z,98758.71
2019-04-29T02:32:00.765Z,98752.77
2019-04-29T02:35:05.911Z,98760.38
2019-04-29T02:38:11.988Z,98757.65
2019-04-29T02:41:23.817Z,98757.41
2019-04-29T02:44:28.213Z,98757.22
2019-04-29T02:47:32.720Z,98761.61
2019-04-29T02:50:37.147Z,98756.20
2019-04-29T02:53:41.575Z,98762.69
2019-04-29T02:56:47.652Z,98759.45
2019-04-29T02:59:53.729Z,98762.78
2019-04-29T03:03:02.521Z,98754.33
2019-04-29T03:06:06.975Z,98760.89
2019-04-29T03:09:11.667Z,98759.64
2019-04-29T03:12:16.175Z,98753.18
2019-04-29T03:15:33.537Z,98749.11
2019-04-29T03:18:39.885Z,98745.48
2019-04-29T03:21:48.563Z,98752.79
2019-04-29T03:24:53.241Z,98750.30
2019-04-29T03:27:57.851Z,98744.63
2019-04-29T03:31:02.606Z,98754.97
2019-04-29T03:34:07.019Z,98748.47
2019-04-29T03:37:11.748Z,98748.62
2019-04-29T03:40:16.173Z,98746.41
2019-04-29T03:43:20.607Z,98743.32
2019-04-29T03:46:25.329Z,98752.54
2019-04-29T03:49:29.755Z,98748.47
2019-04-29T03:52:34.200Z,98747.97
2019-04-29T03:55:40.487Z,98749.80
2019-04-29T03:58:44.779Z,98755.64
2019-04-29T04:02:09.163Z,98743.45
2019-04-29T04:05:15.230Z,98748.77
2019-04-29T04:08:23.942Z,98747.67
2019-04-29T04:11:28.377Z,98749.23
2019-04-29T04:14:32.808Z,98747.95
2019-04-29T04:17:47.419Z,98751.20
2019-04-29T04:20:52.183Z,98749.28
2019-04-29T04:23:58.307Z,98750.97
2019-04-29T04:27:02.811Z,98759.84
2019-04-29T04:30:08.345Z,98758.15
2019-04-29T04:33:12.771Z,98758.58
2019-04-29T04:36:17.473Z,98758.66
2019-04-29T04:39:21.905Z,98769.43
2019-04-29T04:42:29.572Z,98767.56
2019-04-29T04:45:32.485Z,98765.50
2019-04-29T04:48:37.225Z,98764.17
2019-04-29T04:51:41.642Z,98766.72
2019-04-29T04:54:47.720Z,98771.61
2019-04-29T04:57:52.151Z,98775.09
2019-04-29T05:00:56.583Z,98774.93
2019-04-29T05:04:01.280Z,98779.79
2019-04-29T05:07:05.708Z,98784.53
2019-04-29T05:10:10.643Z,98786.20
2019-04-29T05:13:27.366Z,98788.24
2019-04-29T05:16:21.219Z,98792.70
2019-04-29T05:19:25.656Z,98787.86
2019-04-29T05:22:30.386Z,98793.14
2019-04-29T05:25:35.544Z,98792.77
2019-04-29T05:28:39.982Z,98793.84
2019-04-29T05:31:44.689Z,98791.24
2019-04-29T05:34:50.763Z,98801.80
2019-04-29T05:37:57.024Z,98801.98
2019-04-29T05:41:01.733Z,98802.03
2019-04-29T05:44:13.791Z,98801.58
2019-04-29T05:47:19.857Z,98808.50
2019-04-29T05:50:24.332Z,98807.36
2019-04-29T05:53:36.230Z,98815.33
2019-04-29T05:56:40.651Z,98822.52
2019-04-29T05:59:47.790Z,98823.70
2019-04-29T06:02:51.855Z,98821.34
2019-04-29T06:05:57.115Z,98820.16
2019-04-29T06:09:01.548Z,98818.37
2019-04-29T06:12:06.045Z,98810.03
2019-04-29T06:15:10.606Z,98818.69
2019-04-29T06:18:17.739Z,98813.73
2019-04-29T06:21:21.189Z,98809.82
2019-04-29T06:24:25.622Z,98809.45
2019-04-29T06:27:33.286Z,98818.34
2019-04-29T06:30:40.467Z,98818.98
2019-04-29T06:33:43.266Z,98819.84
2019-04-29T06:36:47.983Z,98829.02
2019-04-29T06:39:52.421Z,98828.61
2019-04-29T06:42:56.846Z,98834.75
2019-04-29T06:46:01.562Z,98835.86
2019-04-29T06:49:10.402Z,98828.30
2019-04-29T06:52:12.147Z,98836.42
2019-04-29T06:55:16.584Z,98836.78
2019-04-29T06:58:21.016Z,98830.09
2019-04-29T07:01:25.446Z,98834.55
2019-04-29T07:04:30.646Z,98844.53
2019-04-29T07:07:36.324Z,98841.00
2019-04-29T07:10:41.045Z,98833.62
2019-04-29T07:13:46.748Z,98832.39
2019-04-29T07:16:51.215Z,98833.34
2019-04-29T07:19:57.576Z,98836.70
2019-04-29T07:23:02.457Z,98837.53
2019-04-29T07:26:07.045Z,98835.98
2019-04-29T07:29:11.890Z,98837.17
2019-04-29T07:32:16.620Z,98837.05
2019-04-29T07:35:21.353Z,98831.16
2019-04-29T07:38:26.080Z,98828.56
2019-04-29T07:41:30.524Z,98827.24
2019-04-29T07:44:43.846Z,98830.23
2019-04-29T07:47:55.788Z,98831.08
2019-04-29T07:50:51.455Z,98832.55
2019-04-29T07:53:56.190Z,98831.21
2019-04-29T07:57:00.635Z,98826.91
2019-04-29T08:00:12.715Z,98822.92
2019-04-29T08:03:14.756Z,98819.91
2019-04-29T08:06:19.339Z,98824.53
2019-04-29T08:09:24.141Z,98824.31
2019-04-29T08:12:29.303Z,98825.00
2019-04-29T08:15:36.855Z,98826.05
2019-04-29T08:18:40.171Z,98832.33
2019-04-29T08:21:45.573Z,98830.80
2019-04-29T08:24:52.160Z,98838.03
2019-04-29T08:27:56.793Z,98839.16
2019-04-29T08:31:01.236Z,98833.53
2019-04-29T08:34:05.984Z,98837.56
2019-04-29T08:37:10.426Z,98842.45
2019-04-29T08:40:16.742Z,98840.11
2019-04-29T08:43:23.066Z,98846.89
2019-04-29T08:46:35.070Z,98842.90
2019-04-29T08:49:39.503Z,98843.42
2019-04-29T08:52:43.947Z,98834.81
2019-04-29T08:55:48.519Z,98831.59
2019-04-29T08:58:52.947Z,98836.97
2019-04-29T09:01:57.671Z,98838.84
2019-04-29T09:05:02.108Z,98839.64
2019-04-29T09:08:06.581Z,98837.17
2019-04-29T09:11:12.909Z,98842.59
2019-04-29T09:14:17.417Z,98838.52
2019-04-29T09:17:21.858Z,98832.89
2019-04-29T09:20:26.287Z,98825.06
2019-04-29T09:23:32.631Z,98832.33
2019-04-29T09:26:38.998Z,98825.52
2019-04-29T09:29:46.421Z,98827.95
2019-04-29T09:32:49.897Z,98817.71
2019-04-29T09:35:54.624Z,98823.27
2019-04-29T09:38:59.357Z,98828.63
2019-04-29T09:42:13.014Z,98824.86
2019-04-29T09:45:24.853Z,98817.06
2019-04-29T09:48:29.297Z,98813.52
2019-04-29T09:51:33.742Z,98817.23
2019-04-29T09:54:38.172Z,98813.95
2019-04-29T09:57:42.895Z,98816.36
2019-04-29T10:00:52.355Z,98810.08
2019-04-29T10:03:59.533Z,98814.75
2019-04-29T10:07:05.643Z,98805.14
2019-04-29T10:10:10.315Z,98802.80
2019-04-29T10:13:15.047Z,98806.61
2019-04-29T10:16:27.062Z,98790.44
2019-04-29T10:19:33.142Z,98793.53
2019-04-29T10:22:37.587Z,98790.36
2019-04-29T10:25:42.095Z,98791.94
2019-04-29T10:28:50.575Z,98786.17
2019-04-29T10:31:55.009Z,98779.88
2019-04-29T10:35:03.651Z,98778.06
2019-04-29T10:38:06.753Z,98771.50
2019-04-29T10:41:24.555Z,98768.73
2019-04-29T10:44:30.927Z,98760.77
2019-04-29T10:47:35.452Z,98757.13
2019-04-29T10:50:41.819Z,98760.11
2019-04-29T10:53:46.733Z,98748.96
2019-04-29T10:56:52.588Z,98757.83
2019-04-29T11:00:01.001Z,98756.88
2019-04-29T11:03:04.975Z,98756.37
2019-04-29T11:06:09.851Z,98746.66
2019-04-29T11:09:16.106Z,98746.06
2019-04-29T11:12:21.084Z,98743.14
2019-04-29T11:15:29.557Z,98739.75
2019-04-29T11:18:33.742Z,98743.31
2019-04-29T11:21:38.974Z,98730.06
2019-04-29T11:24:45.714Z,98722.77
2019-04-29T11:27:56.254Z,98722.69
2019-04-29T11:31:00.950Z,98719.08
2019-04-29T11:34:07.706Z,98721.44
2019-04-29T11:37:17.913Z,98707.80
2019-04-29T11:40:26.053Z,98710.95
2019-04-29T11:43:28.284Z,98705.72
2019-04-29T11:46:32.721Z,98705.94
2019-04-29T11:49:38.807Z,98703.47
2019-04-29T11:52:43.239Z,98701.88
2019-04-29T11:55:47.794Z,98695.45
2019-04-29T11:58:53.888Z,98692.98
2019-04-29T12:02:05.910Z,98686.00
2019-04-29T12:05:12.860Z,98680.19
2019-04-29T12:08:18.439Z,98676.14
2019-04-29T12:11:28.660Z,98672.89
2019-04-29T12:14:48.475Z,98681.08
2019-04-29T12:18:00.520Z,98680.18
2019-04-29T12:21:09.219Z,98681.29
2019-04-29T12:24:14.090Z,98678.50
2019-04-29T12:27:20.125Z,98676.05
2019-04-29T12:30:29.934Z,98678.99
2019-04-29T12:33:36.939Z,98678.40
2019-04-29T12:36:54.994Z,98668.91
2019-04-29T12:39:50.552Z,98671.72
2019-04-29T12:43:16.228Z,98666.83
2019-04-29T12:46:23.658Z,98660.40
2019-04-29T12:49:28.102Z,98658.95
2019-04-29T12:52:32.533Z,98657.53
2019-04-29T12:55:45.187Z,98648.84
2019-04-29T12:58:50.494Z,98650.45
2019-04-29T13:01:58.311Z,98657.09
2019-04-29T13:05:01.631Z,98647.96
2019-04-29T13:08:08.053Z,98651.12
2019-04-29T13:11:14.703Z,98645.38
2019-04-29T13:14:20.568Z,98642.77
2019-04-29T13:17:42.663Z,98636.22
2019-04-29T13:20:50.642Z,98635.70
2019-04-29T13:24:12.190Z,98635.56
2019-04-29T13:26:59.770Z,98636.00
2019-04-29T13:30:14.878Z,98637.96
2019-04-29T13:33:22.209Z,98637.20
2019-04-29T13:36:26.042Z,98630.17
2019-04-29T13:39:39.035Z,98630.30
2019-04-29T13:42:33.518Z,98627.11
2019-04-29T13:45:39.596Z,98622.33
2019-04-29T13:48:55.867Z,98622.94
2019-04-29T13:51:59.209Z,98618.05
2019-04-29T13:55:17.028Z,98610.38
2019-04-29T13:58:09.961Z,98612.83
2019-04-29T14:01:23.783Z,98609.81
2019-04-29T14:04:27.024Z,98608.25
2019-04-29T14:07:31.459Z,98611.98
2019-04-29T14:10:35.893Z,98596.94
2019-04-29T14:13:43.653Z,98595.84
2019-04-29T14:16:47.626Z,98596.08
2019-04-29T14:19:56.794Z,98593.37
2019-04-29T14:22:59.535Z,98588.89
2019-04-29T14:26:04.266Z,98592.13
2019-04-29T14:29:08.717Z,98589.33
2019-04-29T14:32:13.158Z,98587.62
2019-04-29T14:35:19.588Z,98584.55
2019-04-29T14:38:24.508Z,98579.36
2019-04-29T14:41:30.586Z,98576.95
2019-04-29T14:44:42.963Z,98580.92
2019-04-29T14:48:05.464Z,98576.78
2019-04-29T14:51:11.508Z,98584.18
2019-04-29T14:54:15.951Z,98585.83
2019-04-29T14:57:20.393Z,98584.13
2019-04-29T15:00:26.967Z,98585.48
2019-04-29T15:03:49.138Z,98582.14
2019-04-29T15:06:53.635Z,98583.44
2019-04-29T15:09:58.749Z,98587.88
2019-04-29T15:13:20.243Z,98584.36
2019-04-29T15:16:29.137Z,98601.30
2019-04-29T15:19:54.980Z,98582.08
2019-04-29T15:22:56.466Z,98580.95
2019-04-29T15:26:01.210Z,98579.62
2019-04-29T15:33:30.522Z,98586.06
2019-04-29T15:36:36.004Z,98583.55
2019-04-29T15:39:45.338Z,98583.84
2019-04-29T15:42:51.137Z,98585.13
2019-04-29T15:45:52.907Z,98577.33
2019-04-29T15:48:57.669Z,98577.83
2019-04-29T15:52:02.103Z,98579.80
2019-04-29T15:55:06.985Z,98577.95
2019-04-29T15:58:13.024Z,98581.44
2019-04-29T16:01:26.371Z,98578.61
2019-04-29T16:04:33.630Z,98576.98
2019-04-29T16:07:57.258Z,98579.18
2019-04-29T16:11:07.213Z,98588.45
2019-04-29T16:14:13.619Z,98585.91
2019-04-29T16:17:20.631Z,98579.09
2019-04-29T16:20:24.815Z,98582.87
2019-04-29T16:23:32.922Z,98590.73
2019-04-29T16:26:35.741Z,98599.20
2019-04-29T16:29:40.170Z,98598.94
2019-04-29T16:32:44.714Z,98600.56
2019-04-29T16:35:49.151Z,98605.43
2019-04-29T16:38:54.248Z,98598.78
2019-04-29T16:42:01.274Z,98599.16
2019-04-29T16:45:11.981Z,98600.50
2019-04-29T16:48:17.136Z,98598.37
2019-04-29T16:51:22.739Z,98602.16
2019-04-29T16:54:28.489Z,98603.50
2019-04-29T16:57:33.181Z,98600.28
2019-04-29T17:00:46.629Z,98607.31
2019-04-29T17:03:48.589Z,98603.28
2019-04-29T17:07:11.712Z,98601.68
2019-04-29T17:10:05.896Z,98608.70
2019-04-29T17:13:16.640Z,98608.18
2019-04-29T17:16:21.110Z,98616.00
2019-04-29T17:19:25.585Z,98611.45
2019-04-29T17:22:35.707Z,98617.62
2019-04-29T17:25:37.538Z,98627.29
2019-04-29T17:29:11.577Z,98626.22
2019-04-29T17:32:27.504Z,98625.16
2019-04-29T17:35:34.484Z,98624.88
2019-04-29T17:38:38.911Z,98628.91
2019-04-29T17:41:45.468Z,98628.36
2019-04-29T17:44:50.368Z,98628.08
2019-04-29T17:47:59.264Z,98627.02
2019-04-29T17:51:07.866Z,98631.58
2019-04-29T17:54:15.805Z,98629.42
2019-04-29T17:57:28.729Z,98627.27
2019-04-29T18:00:43.854Z,98633.20
2019-04-29T18:03:59.407Z,98635.86
2019-04-29T18:07:15.179Z,98632.36
2019-04-29T18:10:24.187Z,98637.20
2019-04-29T18:13:26.391Z,98639.63
2019-04-29T18:16:32.858Z,98638.26
2019-04-29T18:19:41.735Z,98646.02
2019-04-29T18:22:56.510Z,98637.39
2019-04-29T18:26:02.647Z,98645.70
2019-04-29T18:29:08.068Z,98646.75
2019-04-29T18:32:12.743Z,98644.86
2019-04-29T18:35:17.217Z,98650.97
2019-04-29T18:38:21.956Z,98655.22
2019-04-29T18:41:28.654Z,98656.81
2019-04-29T18:44:33.163Z,98651.71
2019-04-29T18:47:38.852Z,98649.06
2019-04-29T18:50:43.415Z,98658.75
2019-04-29T18:53:48.170Z,98655.25
2019-04-29T18:56:52.619Z,98657.09
2019-04-29T18:59:57.329Z,98658.98
2019-04-29T19:03:01.781Z,98653.10
2019-04-29T19:06:10.309Z,98657.88
2019-04-29T19:09:20.058Z,98653.67
2019-04-29T19:12:20.041Z,98663.58
2019-04-29T19:15:25.680Z,98664.58
2019-04-29T19:18:30.526Z,98661.39
2019-04-29T19:21:34.983Z,98657.69
2019-04-29T19:24:39.522Z,98662.73
2019-04-29T19:27:45.456Z,98669.97
2019-04-29T19:30:50.028Z,98667.28
2019-04-29T19:33:55.075Z,98675.86
2019-04-29T19:37:00.639Z,98674.44
2019-04-29T19:40:08.166Z,98673.59
2019-04-29T19:43:17.402Z,98662.89
2019-04-29T19:46:24.182Z,98667.92
2019-04-29T19:49:25.802Z,98673.28
2019-04-29T19:52:31.898Z,98670.34
2019-04-29T19:55:41.830Z,98662.83
2019-04-29T19:58:43.056Z,98664.11
2019-04-29T20:01:50.993Z,98664.00
2019-04-29T20:04:58.978Z,98666.58
2019-04-29T20:08:02.521Z,98661.50
2019-04-29T20:11:14.552Z,98664.21
2019-04-29T20:14:20.821Z,98662.42
2019-04-29T20:17:31.246Z,98660.53
2019-04-29T20:20:38.911Z,98651.44
2019-04-29T20:23:45.861Z,98654.38
2019-04-29T20:26:49.830Z,98647.11
2019-04-29T20:29:55.797Z,98645.94
2019-04-29T20:33:01.071Z,98643.25
2019-04-29T20:36:06.937Z,98638.47
2019-04-29T20:39:17.040Z,98631.25
2019-04-29T20:42:17.772Z,98631.86
2019-04-29T20:45:25.399Z,98629.53
2019-04-29T20:48:31.359Z,98632.48
2019-04-29T20:51:48.783Z,98625.44
2019-04-29T20:54:42.098Z,98617.12
2019-04-29T20:57:47.998Z,98616.88
2019-04-29T21:00:58.314Z,98609.77
2019-04-29T21:03:59.597Z,98605.01
2019-04-29T21:07:07.033Z,98601.98
2019-04-29T21:10:12.505Z,98600.97
2019-04-29T21:13:34.892Z,98592.79
2019-04-29T21:16:41.259Z,98594.53
2019-04-29T21:19:46.000Z,98591.61
2019-04-29T21:22:52.517Z,98591.56
2019-04-29T21:26:00.398Z,98596.07
2019-04-29T21:29:03.357Z,98591.48
2019-04-29T21:32:07.792Z,98589.56
2019-04-29T21:35:18.302Z,98596.20
2019-04-29T21:38:38.741Z,98593.03
2019-04-29T21:42:02.824Z,98584.73
2019-04-29T21:45:10.740Z,98585.73
2019-04-29T21:48:15.474Z,98570.58
2019-04-29T21:51:20.188Z,98571.66
2019-04-29T21:54:24.637Z,98576.80
2019-04-29T21:57:29.345Z,98573.81
2019-04-29T22:00:35.229Z,98572.42
2019-04-29T22:03:40.363Z,98573.02
2019-04-29T22:06:45.880Z,98574.05
2019-04-29T22:09:50.956Z,98574.42
2019-04-29T22:13:00.870Z,98570.13
2019-04-29T22:16:01.627Z,98567.03
2019-04-29T22:19:06.069Z,98566.75
2019-04-29T22:22:10.778Z,98563.76
2019-04-29T22:25:15.828Z,98566.15
2019-04-29T22:28:20.746Z,98565.05
2019-04-29T22:31:26.910Z,98563.89
2019-04-29T22:34:31.576Z,98568.45
2019-04-29T22:37:38.158Z,98567.92
2019-04-29T22:40:43.082Z,98572.75
2019-04-29T22:43:51.162Z,98571.39
2019-04-29T22:46:55.622Z,98573.38
2019-04-29T22:50:03.183Z,98571.80
2019-04-29T22:53:08.882Z,98575.86
2019-04-29T22:56:14.246Z,98576.08
2019-04-29T22:59:20.246Z,98574.42
2019-04-29T23:02:28.405Z,98572.36
2019-04-29T23:05:31.348Z,98560.25
2019-04-29T23:08:38.051Z,98562.45
2019-04-29T23:11:42.247Z,98567.03
2019-04-29T23:14:47.073Z,98559.81
2019-04-29T23:17:51.808Z,98554.77
2019-04-29T23:21:16.290Z,98551.30
2019-04-29T23:24:38.020Z,98548.07
2019-04-29T23:27:42.759Z,98554.41
2019-04-29T23:30:47.811Z,98552.77
2019-04-29T23:33:54.893Z,98553.32
2019-04-29T23:36:59.606Z,98554.70
2019-04-29T23:40:05.903Z,98550.75
2019-04-29T23:43:10.611Z,98544.91
2019-04-29T23:46:16.132Z,98542.19
2019-04-29T23:49:20.776Z,98548.80
2019-04-29T23:52:26.945Z,98534.69
2019-04-29T23:55:31.786Z,98529.95
2019-04-29T23:58:46.768Z,98527.30
